sensor_id;sensor_type;location;lat;lon;timestamp;temperature;humidity
68943;DHT22;60852;52.190;4.422;2022-07-24T00:02:24;20.21;70.42
68943;DHT22;60852;52.190;4.422;2022-07-24T00:04:50;20.21;70.48
68943;DHT22;60852;52.190;4.422;2022-07-24T00:07:15;20.22;70.46
68943;DHT22;60852;52.190;4.422;2022-07-24T00:09:41;20.24;70.46
68943;DHT22;60852;52.190;4.422;2022-07-24T00:12:07;20.21;70.55
68943;DHT22;60852;52.190;4.422;2022-07-24T00:14:33;20.17;70.57
68943;DHT22;60852;52.190;4.422;2022-07-24T00:16:58;20.14;70.54
68943;DHT22;60852;52.190;4.422;2022-07-24T00:19:24;20.14;70.69
68943;DHT22;60852;52.190;4.422;2022-07-24T00:21:49;20.11;70.65
68943;DHT22;60852;52.190;4.422;2022-07-24T00:24:15;20.12;70.53
68943;DHT22;60852;52.190;4.422;2022-07-24T00:26:40;20.09;70.50
68943;DHT22;60852;52.190;4.422;2022-07-24T00:29:06;20.11;70.63
68943;DHT22;60852;52.190;4.422;2022-07-24T00:31:31;20.08;70.62
68943;DHT22;60852;52.190;4.422;2022-07-24T00:33:57;20.08;70.66
68943;DHT22;60852;52.190;4.422;2022-07-24T00:36:22;20.05;70.69
68943;DHT22;60852;52.190;4.422;2022-07-24T00:38:48;20.04;70.56
68943;DHT22;60852;52.190;4.422;2022-07-24T00:41:13;19.98;70.63
68943;DHT22;60852;52.190;4.422;2022-07-24T00:44:07;19.95;70.80
68943;DHT22;60852;52.190;4.422;2022-07-24T00:46:35;19.97;70.70
68943;DHT22;60852;52.190;4.422;2022-07-24T00:49:03;19.91;70.55
68943;DHT22;60852;52.190;4.422;2022-07-24T00:51:28;19.94;70.52
68943;DHT22;60852;52.190;4.422;2022-07-24T00:53:54;19.92;70.53
68943;DHT22;60852;52.190;4.422;2022-07-24T00:56:20;19.89;70.55
68943;DHT22;60852;52.190;4.422;2022-07-24T00:58:47;19.84;70.88
68943;DHT22;60852;52.190;4.422;2022-07-24T01:01:13;19.77;71.15
68943;DHT22;60852;52.190;4.422;2022-07-24T01:03:39;19.70;71.45
68943;DHT22;60852;52.190;4.422;2022-07-24T01:06:06;19.70;71.41
68943;DHT22;60852;52.190;4.422;2022-07-24T01:08:33;19.70;71.44
68943;DHT22;60852;52.190;4.422;2022-07-24T01:10:59;19.74;71.41
68943;DHT22;60852;52.190;4.422;2022-07-24T01:13:25;19.71;71.52
68943;DHT22;60852;52.190;4.422;2022-07-24T01:15:50;19.74;71.47
68943;DHT22;60852;52.190;4.422;2022-07-24T01:18:16;19.71;71.51
68943;DHT22;60852;52.190;4.422;2022-07-24T01:20:46;19.74;71.42
68943;DHT22;60852;52.190;4.422;2022-07-24T01:23:12;19.74;71.40
68943;DHT22;60852;52.190;4.422;2022-07-24T01:25:38;19.74;71.45
68943;DHT22;60852;52.190;4.422;2022-07-24T01:28:04;19.71;71.53
68943;DHT22;60852;52.190;4.422;2022-07-24T01:30:29;19.73;71.55
68943;DHT22;60852;52.190;4.422;2022-07-24T01:32:55;19.68;71.59
68943;DHT22;60852;52.190;4.422;2022-07-24T01:35:20;19.66;71.75
68943;DHT22;60852;52.190;4.422;2022-07-24T01:37:46;19.60;71.79
68943;DHT22;60852;52.190;4.422;2022-07-24T01:40:11;19.60;71.87
68943;DHT22;60852;52.190;4.422;2022-07-24T01:42:37;19.53;72.05
68943;DHT22;60852;52.190;4.422;2022-07-24T01:45:03;19.50;72.19
68943;DHT22;60852;52.190;4.422;2022-07-24T01:47:28;19.49;72.14
68943;DHT22;60852;52.190;4.422;2022-07-24T01:49:54;19.41;72.28
68943;DHT22;60852;52.190;4.422;2022-07-24T01:52:19;19.37;72.50
68943;DHT22;60852;52.190;4.422;2022-07-24T01:54:45;19.39;72.39
68943;DHT22;60852;52.190;4.422;2022-07-24T01:57:10;19.46;72.25
68943;DHT22;60852;52.190;4.422;2022-07-24T01:59:36;19.45;72.20
68943;DHT22;60852;52.190;4.422;2022-07-24T02:02:01;19.49;71.95
68943;DHT22;60852;52.190;4.422;2022-07-24T02:04:27;19.49;71.93
68943;DHT22;60852;52.190;4.422;2022-07-24T02:06:52;19.47;72.18
68943;DHT22;60852;52.190;4.422;2022-07-24T02:09:18;19.47;72.13
68943;DHT22;60852;52.190;4.422;2022-07-24T02:11:43;19.51;71.97
68943;DHT22;60852;52.190;4.422;2022-07-24T02:14:09;19.56;71.66
68943;DHT22;60852;52.190;4.422;2022-07-24T02:16:35;19.54;71.66
68943;DHT22;60852;52.190;4.422;2022-07-24T02:19:00;19.56;71.58
68943;DHT22;60852;52.190;4.422;2022-07-24T02:21:26;19.58;71.55
68943;DHT22;60852;52.190;4.422;2022-07-24T02:23:51;19.57;71.53
68943;DHT22;60852;52.190;4.422;2022-07-24T02:26:17;19.51;71.45
68943;DHT22;60852;52.190;4.422;2022-07-24T02:28:42;19.49;71.57
68943;DHT22;60852;52.190;4.422;2022-07-24T02:31:07;19.45;71.82
68943;DHT22;60852;52.190;4.422;2022-07-24T02:33:33;19.39;71.94
68943;DHT22;60852;52.190;4.422;2022-07-24T02:35:58;19.37;71.91
68943;DHT22;60852;52.190;4.422;2022-07-24T02:38:24;19.39;71.98
68943;DHT22;60852;52.190;4.422;2022-07-24T02:40:49;19.36;72.23
68943;DHT22;60852;52.190;4.422;2022-07-24T02:43:15;19.31;72.29
68943;DHT22;60852;52.190;4.422;2022-07-24T02:45:40;19.30;72.43
68943;DHT22;60852;52.190;4.422;2022-07-24T02:48:06;19.29;72.47
68943;DHT22;60852;52.190;4.422;2022-07-24T02:50:33;19.27;72.68
68943;DHT22;60852;52.190;4.422;2022-07-24T02:53:00;19.22;72.81
68943;DHT22;60852;52.190;4.422;2022-07-24T02:55:26;19.18;73.03
68943;DHT22;60852;52.190;4.422;2022-07-24T02:57:54;19.13;73.34
68943;DHT22;60852;52.190;4.422;2022-07-24T03:00:20;19.08;73.66
68943;DHT22;60852;52.190;4.422;2022-07-24T03:02:46;19.02;73.89
68943;DHT22;60852;52.190;4.422;2022-07-24T03:05:12;18.99;74.09
68943;DHT22;60852;52.190;4.422;2022-07-24T03:07:38;18.91;74.29
68943;DHT22;60852;52.190;4.422;2022-07-24T03:10:05;18.84;74.72
68943;DHT22;60852;52.190;4.422;2022-07-24T03:12:31;18.76;75.12
68943;DHT22;60852;52.190;4.422;2022-07-24T03:14:56;18.75;75.07
68943;DHT22;60852;52.190;4.422;2022-07-24T03:17:22;18.79;75.15
68943;DHT22;60852;52.190;4.422;2022-07-24T03:19:48;18.79;75.07
68943;DHT22;60852;52.190;4.422;2022-07-24T03:22:13;18.72;75.32
68943;DHT22;60852;52.190;4.422;2022-07-24T03:24:39;18.78;75.32
68943;DHT22;60852;52.190;4.422;2022-07-24T03:27:04;18.87;75.06
68943;DHT22;60852;52.190;4.422;2022-07-24T03:29:30;18.84;75.10
68943;DHT22;60852;52.190;4.422;2022-07-24T03:31:55;18.81;75.09
68943;DHT22;60852;52.190;4.422;2022-07-24T03:34:21;18.91;75.05
68943;DHT22;60852;52.190;4.422;2022-07-24T03:36:47;18.94;74.73
68943;DHT22;60852;52.190;4.422;2022-07-24T03:39:12;18.94;74.59
68943;DHT22;60852;52.190;4.422;2022-07-24T03:41:38;18.91;74.63
68943;DHT22;60852;52.190;4.422;2022-07-24T03:44:03;18.99;74.41
68943;DHT22;60852;52.190;4.422;2022-07-24T03:46:29;18.94;74.59
68943;DHT22;60852;52.190;4.422;2022-07-24T03:48:55;18.89;74.66
68943;DHT22;60852;52.190;4.422;2022-07-24T03:51:21;18.94;74.57
68943;DHT22;60852;52.190;4.422;2022-07-24T03:53:47;18.95;74.38
68943;DHT22;60852;52.190;4.422;2022-07-24T03:56:13;18.94;74.45
68943;DHT22;60852;52.190;4.422;2022-07-24T03:58:38;18.96;74.19
68943;DHT22;60852;52.190;4.422;2022-07-24T04:01:04;19.02;73.81
68943;DHT22;60852;52.190;4.422;2022-07-24T04:03:29;19.08;73.62
68943;DHT22;60852;52.190;4.422;2022-07-24T04:05:55;19.06;73.63
68943;DHT22;60852;52.190;4.422;2022-07-24T04:08:20;19.05;73.44
68943;DHT22;60852;52.190;4.422;2022-07-24T04:10:46;19.05;73.33
68943;DHT22;60852;52.190;4.422;2022-07-24T04:13:12;19.03;73.45
68943;DHT22;60852;52.190;4.422;2022-07-24T04:15:37;19.08;73.33
68943;DHT22;60852;52.190;4.422;2022-07-24T04:18:03;19.10;73.28
68943;DHT22;60852;52.190;4.422;2022-07-24T04:20:28;19.08;73.39
68943;DHT22;60852;52.190;4.422;2022-07-24T04:22:54;19.03;73.41
68943;DHT22;60852;52.190;4.422;2022-07-24T04:25:19;19.02;73.66
68943;DHT22;60852;52.190;4.422;2022-07-24T04:27:45;18.99;73.73
68943;DHT22;60852;52.190;4.422;2022-07-24T04:30:11;19.09;73.66
68943;DHT22;60852;52.190;4.422;2022-07-24T04:32:37;19.22;73.12
68943;DHT22;60852;52.190;4.422;2022-07-24T04:35:05;19.33;72.74
68943;DHT22;60852;52.190;4.422;2022-07-24T04:37:30;19.39;72.46
68943;DHT22;60852;52.190;4.422;2022-07-24T04:39:56;19.45;72.42
68943;DHT22;60852;52.190;4.422;2022-07-24T04:42:21;19.45;72.31
68943;DHT22;60852;52.190;4.422;2022-07-24T04:44:47;19.34;72.56
68943;DHT22;60852;52.190;4.422;2022-07-24T04:47:12;19.15;73.18
68943;DHT22;60852;52.190;4.422;2022-07-24T04:49:38;18.98;73.98
68943;DHT22;60852;52.190;4.422;2022-07-24T04:52:03;19.06;73.90
68943;DHT22;60852;52.190;4.422;2022-07-24T04:54:29;19.06;73.87
68943;DHT22;60852;52.190;4.422;2022-07-24T04:56:54;19.06;74.13
68943;DHT22;60852;52.190;4.422;2022-07-24T04:59:20;19.16;74.02
68943;DHT22;60852;52.190;4.422;2022-07-24T05:01:45;19.31;73.66
68943;DHT22;60852;52.190;4.422;2022-07-24T05:04:10;19.43;73.00
68943;DHT22;60852;52.190;4.422;2022-07-24T05:06:36;19.51;72.73
68943;DHT22;60852;52.190;4.422;2022-07-24T05:09:02;19.61;72.45
68943;DHT22;60852;52.190;4.422;2022-07-24T05:11:27;20.35;70.90
68943;DHT22;60852;52.190;4.422;2022-07-24T05:13:53;21.72;66.25
68943;DHT22;60852;52.190;4.422;2022-07-24T05:16:18;22.75;62.83
68943;DHT22;60852;52.190;4.422;2022-07-24T05:18:44;23.16;60.89
68943;DHT22;60852;52.190;4.422;2022-07-24T05:21:10;23.63;59.62
68943;DHT22;60852;52.190;4.422;2022-07-24T05:23:35;24.08;58.12
68943;DHT22;60852;52.190;4.422;2022-07-24T05:26:01;24.14;58.50
68943;DHT22;60852;52.190;4.422;2022-07-24T05:28:26;23.75;59.58
68943;DHT22;60852;52.190;4.422;2022-07-24T05:30:51;23.05;60.91
68943;DHT22;60852;52.190;4.422;2022-07-24T05:33:17;22.62;62.74
68943;DHT22;60852;52.190;4.422;2022-07-24T05:35:42;21.76;65.38
68943;DHT22;60852;52.190;4.422;2022-07-24T05:38:08;21.63;66.20
68943;DHT22;60852;52.190;4.422;2022-07-24T05:40:33;21.51;66.42
68943;DHT22;60852;52.190;4.422;2022-07-24T05:42:59;21.27;67.12
68943;DHT22;60852;52.190;4.422;2022-07-24T05:45:24;21.06;67.85
68943;DHT22;60852;52.190;4.422;2022-07-24T05:47:50;21.21;67.46
68943;DHT22;60852;52.190;4.422;2022-07-24T05:50:15;22.04;65.37
68943;DHT22;60852;52.190;4.422;2022-07-24T05:52:41;23.32;61.09
68943;DHT22;60852;52.190;4.422;2022-07-24T05:55:08;22.54;62.72
68943;DHT22;60852;52.190;4.422;2022-07-24T05:57:33;22.21;63.90
68943;DHT22;60852;52.190;4.422;2022-07-24T05:59:59;22.03;64.68
68943;DHT22;60852;52.190;4.422;2022-07-24T06:02:25;22.03;64.44
68943;DHT22;60852;52.190;4.422;2022-07-24T06:04:50;21.95;64.87
68943;DHT22;60852;52.190;4.422;2022-07-24T06:07:16;21.54;65.41
68943;DHT22;60852;52.190;4.422;2022-07-24T06:09:41;21.20;66.75
68943;DHT22;60852;52.190;4.422;2022-07-24T06:12:07;21.27;66.96
68943;DHT22;60852;52.190;4.422;2022-07-24T06:14:33;21.66;65.57
68943;DHT22;60852;52.190;4.422;2022-07-24T06:16:58;22.03;64.06
68943;DHT22;60852;52.190;4.422;2022-07-24T06:19:25;22.74;62.52
68943;DHT22;60852;52.190;4.422;2022-07-24T06:21:51;23.70;59.72
68943;DHT22;60852;52.190;4.422;2022-07-24T06:24:16;23.69;59.13
68943;DHT22;60852;52.190;4.422;2022-07-24T06:26:42;23.29;60.02
68943;DHT22;60852;52.190;4.422;2022-07-24T06:29:07;22.85;61.59
68943;DHT22;60852;52.190;4.422;2022-07-24T06:31:33;22.58;62.07
68943;DHT22;60852;52.190;4.422;2022-07-24T06:33:58;22.36;62.55
68943;DHT22;60852;52.190;4.422;2022-07-24T06:36:23;22.16;63.36
68943;DHT22;60852;52.190;4.422;2022-07-24T06:38:49;21.71;64.31
68943;DHT22;60852;52.190;4.422;2022-07-24T06:41:14;21.75;64.75
68943;DHT22;60852;52.190;4.422;2022-07-24T06:43:40;21.76;65.00
68943;DHT22;60852;52.190;4.422;2022-07-24T06:46:06;21.81;64.83
68943;DHT22;60852;52.190;4.422;2022-07-24T06:48:32;21.89;64.73
68943;DHT22;60852;52.190;4.422;2022-07-24T06:50:58;21.93;64.65
68943;DHT22;60852;52.190;4.422;2022-07-24T06:53:23;22.07;64.08
68943;DHT22;60852;52.190;4.422;2022-07-24T06:55:49;22.16;63.34
68943;DHT22;60852;52.190;4.422;2022-07-24T06:58:17;22.29;63.31
68943;DHT22;60852;52.190;4.422;2022-07-24T07:00:43;22.07;63.58
68943;DHT22;60852;52.190;4.422;2022-07-24T07:03:08;22.09;63.71
68943;DHT22;60852;52.190;4.422;2022-07-24T07:05:34;21.99;64.09
68943;DHT22;60852;52.190;4.422;2022-07-24T07:07:59;22.09;64.39
68943;DHT22;60852;52.190;4.422;2022-07-24T07:10:24;22.00;64.17
68943;DHT22;60852;52.190;4.422;2022-07-24T07:12:50;22.21;64.30
68943;DHT22;60852;52.190;4.422;2022-07-24T07:15:15;22.40;63.20
68943;DHT22;60852;52.190;4.422;2022-07-24T07:17:41;22.45;62.90
68943;DHT22;60852;52.190;4.422;2022-07-24T07:20:08;22.41;63.43
68943;DHT22;60852;52.190;4.422;2022-07-24T07:22:34;22.34;63.27
68943;DHT22;60852;52.190;4.422;2022-07-24T07:25:00;22.18;62.79
68943;DHT22;60852;52.190;4.422;2022-07-24T07:27:25;22.14;62.85
68943;DHT22;60852;52.190;4.422;2022-07-24T07:29:50;22.04;63.41
68943;DHT22;60852;52.190;4.422;2022-07-24T07:32:16;22.09;63.76
68943;DHT22;60852;52.190;4.422;2022-07-24T07:34:41;22.33;63.18
68943;DHT22;60852;52.190;4.422;2022-07-24T07:37:07;22.47;62.82
68943;DHT22;60852;52.190;4.422;2022-07-24T07:39:32;22.75;61.68
68943;DHT22;60852;52.190;4.422;2022-07-24T07:41:58;22.85;60.52
68943;DHT22;60852;52.190;4.422;2022-07-24T07:44:23;23.06;60.31
68943;DHT22;60852;52.190;4.422;2022-07-24T07:46:48;23.08;60.41
68943;DHT22;60852;52.190;4.422;2022-07-24T07:49:14;23.22;60.32
68943;DHT22;60852;52.190;4.422;2022-07-24T07:51:39;23.20;60.11
68943;DHT22;60852;52.190;4.422;2022-07-24T07:54:05;23.47;60.06
68943;DHT22;60852;52.190;4.422;2022-07-24T07:56:30;23.61;59.20
68943;DHT22;60852;52.190;4.422;2022-07-24T07:58:58;23.40;59.75
68943;DHT22;60852;52.190;4.422;2022-07-24T08:01:23;23.27;59.46
68943;DHT22;60852;52.190;4.422;2022-07-24T08:03:49;23.29;59.80
68943;DHT22;60852;52.190;4.422;2022-07-24T08:06:14;23.43;59.30
68943;DHT22;60852;52.190;4.422;2022-07-24T08:08:39;23.23;59.74
68943;DHT22;60852;52.190;4.422;2022-07-24T08:11:05;23.27;60.18
68943;DHT22;60852;52.190;4.422;2022-07-24T08:13:31;23.40;60.15
68943;DHT22;60852;52.190;4.422;2022-07-24T08:15:56;23.71;59.07
68943;DHT22;60852;52.190;4.422;2022-07-24T08:18:22;23.74;58.67
68943;DHT22;60852;52.190;4.422;2022-07-24T08:20:47;23.70;58.67
68943;DHT22;60852;52.190;4.422;2022-07-24T08:23:13;23.77;58.14
68943;DHT22;60852;52.190;4.422;2022-07-24T08:25:39;23.80;58.28
68943;DHT22;60852;52.190;4.422;2022-07-24T08:28:04;23.81;58.41
68943;DHT22;60852;52.190;4.422;2022-07-24T08:30:30;23.80;58.31
68943;DHT22;60852;52.190;4.422;2022-07-24T08:32:55;23.67;58.75
68943;DHT22;60852;52.190;4.422;2022-07-24T08:35:21;23.85;58.60
68943;DHT22;60852;52.190;4.422;2022-07-24T08:37:49;23.96;58.06
68943;DHT22;60852;52.190;4.422;2022-07-24T08:40:15;23.96;57.24
68943;DHT22;60852;52.190;4.422;2022-07-24T08:42:41;24.02;57.42
68943;DHT22;60852;52.190;4.422;2022-07-24T08:45:07;24.05;56.93
68943;DHT22;60852;52.190;4.422;2022-07-24T08:47:32;24.14;56.72
68943;DHT22;60852;52.190;4.422;2022-07-24T08:49:59;24.00;56.81
68943;DHT22;60852;52.190;4.422;2022-07-24T08:52:26;24.12;56.96
68943;DHT22;60852;52.190;4.422;2022-07-24T08:54:53;24.26;56.34
68943;DHT22;60852;52.190;4.422;2022-07-24T08:57:19;24.42;55.78
68943;DHT22;60852;52.190;4.422;2022-07-24T08:59:44;24.36;55.12
68943;DHT22;60852;52.190;4.422;2022-07-24T09:02:10;24.45;54.37
68943;DHT22;60852;52.190;4.422;2022-07-24T09:04:42;24.49;54.57
68943;DHT22;60852;52.190;4.422;2022-07-24T09:07:15;24.47;54.54
68943;DHT22;60852;52.190;4.422;2022-07-24T09:09:42;24.48;53.84
68943;DHT22;60852;52.190;4.422;2022-07-24T09:12:14;24.51;53.38
68943;DHT22;60852;52.190;4.422;2022-07-24T09:14:44;24.51;54.24
68943;DHT22;60852;52.190;4.422;2022-07-24T09:17:15;24.62;53.66
68943;DHT22;60852;52.190;4.422;2022-07-24T09:19:55;24.72;53.56
68943;DHT22;60852;52.190;4.422;2022-07-24T09:22:37;24.91;53.23
68943;DHT22;60852;52.190;4.422;2022-07-24T09:27:28;25.17;53.02
68943;DHT22;60852;52.190;4.422;2022-07-24T09:29:53;25.16;52.95
68943;DHT22;60852;52.190;4.422;2022-07-24T09:32:22;25.14;52.91
68943;DHT22;60852;52.190;4.422;2022-07-24T09:34:51;25.17;52.43
68943;DHT22;60852;52.190;4.422;2022-07-24T09:37:18;25.31;52.98
68943;DHT22;60852;52.190;4.422;2022-07-24T09:39:44;25.42;51.42
68943;DHT22;60852;52.190;4.422;2022-07-24T09:42:10;25.38;51.65
68943;DHT22;60852;52.190;4.422;2022-07-24T09:44:36;25.44;52.49
68943;DHT22;60852;52.190;4.422;2022-07-24T09:47:10;25.51;52.54
68943;DHT22;60852;52.190;4.422;2022-07-24T09:49:38;25.69;51.84
68943;DHT22;60852;52.190;4.422;2022-07-24T09:52:16;25.88;51.78
68943;DHT22;60852;52.190;4.422;2022-07-24T09:54:49;25.98;51.96
68943;DHT22;60852;52.190;4.422;2022-07-24T09:59:50;25.85;50.49
68943;DHT22;60852;52.190;4.422;2022-07-24T10:02:18;25.92;51.92
68943;DHT22;60852;52.190;4.422;2022-07-24T10:04:46;25.99;51.37
68943;DHT22;60852;52.190;4.422;2022-07-24T10:07:15;26.56;49.10
68943;DHT22;60852;52.190;4.422;2022-07-24T10:09:45;27.39;47.41
68943;DHT22;60852;52.190;4.422;2022-07-24T10:12:30;27.43;45.90
68943;DHT22;60852;52.190;4.422;2022-07-24T10:14:58;28.00;46.21
68943;DHT22;60852;52.190;4.422;2022-07-24T10:20:45;28.76;44.85
68943;DHT22;60852;52.190;4.422;2022-07-24T10:23:25;28.86;45.36
68943;DHT22;60852;52.190;4.422;2022-07-24T10:26:05;29.09;43.59
68943;DHT22;60852;52.190;4.422;2022-07-24T10:28:43;29.14;43.76
68943;DHT22;60852;52.190;4.422;2022-07-24T10:31:11;29.09;43.45
68943;DHT22;60852;52.190;4.422;2022-07-24T10:33:40;29.10;43.69
68943;DHT22;60852;52.190;4.422;2022-07-24T10:36:17;29.48;42.58
68943;DHT22;60852;52.190;4.422;2022-07-24T10:38:56;29.37;42.91
68943;DHT22;60852;52.190;4.422;2022-07-24T10:41:25;28.82;43.98
68943;DHT22;60852;52.190;4.422;2022-07-24T10:47:08;29.04;43.91
68943;DHT22;60852;52.190;4.422;2022-07-24T10:52:03;28.86;43.74
68943;DHT22;60852;52.190;4.422;2022-07-24T10:54:28;29.00;44.11
68943;DHT22;60852;52.190;4.422;2022-07-24T10:56:54;28.98;43.71
68943;DHT22;60852;52.190;4.422;2022-07-24T10:59:33;29.04;43.26
68943;DHT22;60852;52.190;4.422;2022-07-24T11:02:26;28.82;43.32
68943;DHT22;60852;52.190;4.422;2022-07-24T11:05:27;28.48;44.13
68943;DHT22;60852;52.190;4.422;2022-07-24T11:10:54;27.97;45.62
68943;DHT22;60852;52.190;4.422;2022-07-24T11:21:38;28.35;45.07
68943;DHT22;60852;52.190;4.422;2022-07-24T11:26:57;28.22;45.51
68943;DHT22;60852;52.190;4.422;2022-07-24T11:29:37;28.01;45.79
68943;DHT22;60852;52.190;4.422;2022-07-24T11:32:13;28.11;46.13
68943;DHT22;60852;52.190;4.422;2022-07-24T11:34:50;28.28;45.15
68943;DHT22;60852;52.190;4.422;2022-07-24T11:37:15;28.37;46.41
68943;DHT22;60852;52.190;4.422;2022-07-24T11:39:43;28.52;46.22
68943;DHT22;60852;52.190;4.422;2022-07-24T11:42:15;28.63;45.66
68943;DHT22;60852;52.190;4.422;2022-07-24T11:44:46;28.68;46.08
68943;DHT22;60852;52.190;4.422;2022-07-24T11:47:21;28.86;46.05
68943;DHT22;60852;52.190;4.422;2022-07-24T11:49:55;28.82;45.72
68943;DHT22;60852;52.190;4.422;2022-07-24T11:54:48;28.88;45.10
68943;DHT22;60852;52.190;4.422;2022-07-24T11:57:26;28.98;45.68
68943;DHT22;60852;52.190;4.422;2022-07-24T11:59:52;29.14;45.28
68943;DHT22;60852;52.190;4.422;2022-07-24T12:02:22;29.29;45.66
68943;DHT22;60852;52.190;4.422;2022-07-24T12:04:48;29.30;44.50
68943;DHT22;60852;52.190;4.422;2022-07-24T12:07:22;29.21;43.09
68943;DHT22;60852;52.190;4.422;2022-07-24T12:09:52;29.14;43.90
68943;DHT22;60852;52.190;4.422;2022-07-24T12:12:29;29.41;44.47
68943;DHT22;60852;52.190;4.422;2022-07-24T12:15:11;28.98;43.41
68943;DHT22;60852;52.190;4.422;2022-07-24T12:18:02;28.99;42.60
68943;DHT22;60852;52.190;4.422;2022-07-24T12:23:03;29.24;42.65
68943;DHT22;60852;52.190;4.422;2022-07-24T12:25:29;29.23;43.09
68943;DHT22;60852;52.190;4.422;2022-07-24T12:28:09;29.23;42.70
68943;DHT22;60852;52.190;4.422;2022-07-24T12:30:44;28.71;42.52
68943;DHT22;60852;52.190;4.422;2022-07-24T12:36:01;28.96;43.59
68943;DHT22;60852;52.190;4.422;2022-07-24T12:38:39;29.14;43.57
68943;DHT22;60852;52.190;4.422;2022-07-24T12:41:10;29.21;42.85
68943;DHT22;60852;52.190;4.422;2022-07-24T12:43:46;29.20;42.83
68943;DHT22;60852;52.190;4.422;2022-07-24T12:46:13;29.44;42.08
68943;DHT22;60852;52.190;4.422;2022-07-24T12:48:38;29.34;43.03
68943;DHT22;60852;52.190;4.422;2022-07-24T12:51:09;29.38;43.87
68943;DHT22;60852;52.190;4.422;2022-07-24T12:53:38;29.71;43.58
68943;DHT22;60852;52.190;4.422;2022-07-24T12:56:14;29.64;41.39
68943;DHT22;60852;52.190;4.422;2022-07-24T13:01:12;29.46;41.07
68943;DHT22;60852;52.190;4.422;2022-07-24T13:03:38;29.27;41.78
68943;DHT22;60852;52.190;4.422;2022-07-24T13:06:03;29.44;42.78
68943;DHT22;60852;52.190;4.422;2022-07-24T13:08:29;29.26;42.12
68943;DHT22;60852;52.190;4.422;2022-07-24T13:10:54;29.30;43.42
68943;DHT22;60852;52.190;4.422;2022-07-24T13:13:21;29.64;43.39
68943;DHT22;60852;52.190;4.422;2022-07-24T13:15:46;29.93;41.63
68943;DHT22;60852;52.190;4.422;2022-07-24T13:18:12;30.01;41.42
68943;DHT22;60852;52.190;4.422;2022-07-24T13:20:37;29.91;41.77
68943;DHT22;60852;52.190;4.422;2022-07-24T13:23:02;29.78;42.03
68943;DHT22;60852;52.190;4.422;2022-07-24T13:25:28;29.75;42.23
68943;DHT22;60852;52.190;4.422;2022-07-24T13:27:53;29.95;41.72
68943;DHT22;60852;52.190;4.422;2022-07-24T13:30:19;29.91;41.06
68943;DHT22;60852;52.190;4.422;2022-07-24T13:32:44;29.78;41.76
68943;DHT22;60852;52.190;4.422;2022-07-24T13:35:10;29.72;41.54
68943;DHT22;60852;52.190;4.422;2022-07-24T13:37:35;29.72;41.56
68943;DHT22;60852;52.190;4.422;2022-07-24T13:40:01;29.75;42.27
68943;DHT22;60852;52.190;4.422;2022-07-24T13:42:28;30.04;41.79
68943;DHT22;60852;52.190;4.422;2022-07-24T13:44:53;30.26;41.08
68943;DHT22;60852;52.190;4.422;2022-07-24T13:47:19;30.01;41.78
68943;DHT22;60852;52.190;4.422;2022-07-24T13:49:44;29.79;42.04
68943;DHT22;60852;52.190;4.422;2022-07-24T13:52:10;29.79;42.42
68943;DHT22;60852;52.190;4.422;2022-07-24T13:54:35;29.99;41.36
68943;DHT22;60852;52.190;4.422;2022-07-24T13:57:01;30.02;41.53
68943;DHT22;60852;52.190;4.422;2022-07-24T13:59:28;30.06;42.03
68943;DHT22;60852;52.190;4.422;2022-07-24T14:01:54;30.09;41.89
68943;DHT22;60852;52.190;4.422;2022-07-24T14:04:19;29.89;42.34
68943;DHT22;60852;52.190;4.422;2022-07-24T14:06:45;29.92;41.72
68943;DHT22;60852;52.190;4.422;2022-07-24T14:09:10;29.91;41.55
68943;DHT22;60852;52.190;4.422;2022-07-24T14:11:35;30.09;42.26
68943;DHT22;60852;52.190;4.422;2022-07-24T14:14:01;29.98;42.17
68943;DHT22;60852;52.190;4.422;2022-07-24T14:16:26;29.93;42.17
68943;DHT22;60852;52.190;4.422;2022-07-24T14:18:52;29.89;42.39
68943;DHT22;60852;52.190;4.422;2022-07-24T14:21:17;30.01;41.62
68943;DHT22;60852;52.190;4.422;2022-07-24T14:23:43;29.85;41.78
68943;DHT22;60852;52.190;4.422;2022-07-24T14:26:08;29.98;42.64
68943;DHT22;60852;52.190;4.422;2022-07-24T14:28:33;30.15;41.49
68943;DHT22;60852;52.190;4.422;2022-07-24T14:30:59;30.10;41.43
68943;DHT22;60852;52.190;4.422;2022-07-24T14:33:24;30.30;41.47
68943;DHT22;60852;52.190;4.422;2022-07-24T14:35:50;30.35;40.91
68943;DHT22;60852;52.190;4.422;2022-07-24T14:38:16;30.36;41.18
68943;DHT22;60852;52.190;4.422;2022-07-24T14:40:41;30.36;41.38
68943;DHT22;60852;52.190;4.422;2022-07-24T14:43:07;30.32;41.53
68943;DHT22;60852;52.190;4.422;2022-07-24T14:45:33;30.41;41.91
68943;DHT22;60852;52.190;4.422;2022-07-24T14:47:58;30.53;40.65
68943;DHT22;60852;52.190;4.422;2022-07-24T14:50:24;30.60;40.31
68943;DHT22;60852;52.190;4.422;2022-07-24T14:52:49;30.44;40.61
68943;DHT22;60852;52.190;4.422;2022-07-24T14:55:15;30.44;40.59
68943;DHT22;60852;52.190;4.422;2022-07-24T14:57:40;30.40;41.27
68943;DHT22;60852;52.190;4.422;2022-07-24T15:00:06;30.29;40.86
68943;DHT22;60852;52.190;4.422;2022-07-24T15:02:33;30.26;42.61
68943;DHT22;60852;52.190;4.422;2022-07-24T15:04:58;30.04;42.18
68943;DHT22;60852;52.190;4.422;2022-07-24T15:07:24;29.93;42.99
68943;DHT22;60852;52.190;4.422;2022-07-24T15:09:50;29.99;42.49
68943;DHT22;60852;52.190;4.422;2022-07-24T15:12:15;30.02;42.67
68943;DHT22;60852;52.190;4.422;2022-07-24T15:14:41;29.97;42.70
68943;DHT22;60852;52.190;4.422;2022-07-24T15:17:06;29.98;42.57
68943;DHT22;60852;52.190;4.422;2022-07-24T15:19:32;29.93;42.85
68943;DHT22;60852;52.190;4.422;2022-07-24T15:21:57;29.71;43.70
68943;DHT22;60852;52.190;4.422;2022-07-24T15:24:23;29.68;43.52
68943;DHT22;60852;52.190;4.422;2022-07-24T15:26:48;29.82;43.99
68943;DHT22;60852;52.190;4.422;2022-07-24T15:29:16;29.93;43.82
68943;DHT22;60852;52.190;4.422;2022-07-24T15:31:41;30.04;43.69
68943;DHT22;60852;52.190;4.422;2022-07-24T15:34:07;29.95;43.07
68943;DHT22;60852;52.190;4.422;2022-07-24T15:36:32;29.91;42.75
68943;DHT22;60852;52.190;4.422;2022-07-24T15:38:58;29.93;42.73
68943;DHT22;60852;52.190;4.422;2022-07-24T15:41:24;29.91;42.41
68943;DHT22;60852;52.190;4.422;2022-07-24T15:43:49;29.93;42.74
68943;DHT22;60852;52.190;4.422;2022-07-24T15:46:15;29.97;42.77
68943;DHT22;60852;52.190;4.422;2022-07-24T15:48:40;29.98;43.33
68943;DHT22;60852;52.190;4.422;2022-07-24T15:51:06;29.97;42.99
68943;DHT22;60852;52.190;4.422;2022-07-24T15:53:31;29.95;42.83
68943;DHT22;60852;52.190;4.422;2022-07-24T15:55:57;29.92;43.51
68943;DHT22;60852;52.190;4.422;2022-07-24T15:58:23;29.82;43.34
68943;DHT22;60852;52.190;4.422;2022-07-24T16:00:48;29.82;42.86
68943;DHT22;60852;52.190;4.422;2022-07-24T16:03:13;29.81;42.96
68943;DHT22;60852;52.190;4.422;2022-07-24T16:05:39;29.88;43.21
68943;DHT22;60852;52.190;4.422;2022-07-24T16:08:05;29.79;41.99